Latest Weather Observations for Warburton

IDW60801

Issued at 5:43 pm WST Sunday 24 January 2021 (issued every 10 minutes, with the page automatically refreshed every 10 minutes)

About weather observations | Map of weather stations | Latest weather observations for WA | Other Formats
Station Details ID: 013011 Name: WARBURTON AIRFIELD Lat: -26.13 Lon: 126.58 Height: 459.0 m
Data from the previous 72 hours. | See also: Recent months at Warburton
Date/Time
WST
Temp
°C
App
Temp
°C
Dew
Point
°C
Rel
Hum
%
Delta-T
°C
Wind Press
QNH
hPa
Press
MSL
hPa
Rain since
9am
mm
Dir  Spd
km/h
Gust
km/h
Spd
kts
Gust
kts
24/05:30pm 31.0 32.7 20.9 55 6.9 WSW 13 19 7 10 1002.2 998.5 0.0
24/05:00pm 30.9 32.5 21.4 57 6.5 WSW 15 22 8 12 1002.0 998.3 0.0
24/04:30pm 30.4 31.5 21.2 58 6.3 WSW 17 24 9 13 1002.0 998.3 0.0
24/04:00pm 29.9 30.5 21.3 60 5.9 W 20 30 11 16 1002.0 998.3 0.0
24/03:30pm 29.5 30.1 21.4 61 5.5 W 20 28 11 15 1002.2 998.5 0.0
24/03:00pm 28.8 30.2 21.8 66 4.8 W 17 24 9 13 1002.4 998.7 0.0
24/02:30pm 28.7 30.3 22.9 71 4.0 W 19 30 10 16 1002.6 998.9 0.0
24/02:00pm 27.2 28.6 21.9 73 3.6 W 17 26 9 14 1003.0 999.3 0.0
24/01:30pm 26.5 27.3 21.7 75 3.3 W 20 28 11 15 1003.4 999.7 0.0
24/01:00pm 25.8 26.0 22.1 80 2.5 W 24 33 13 18 1003.5 999.8 0.0
24/12:30pm 25.5 24.9 22.0 81 2.4 W 28 37 15 20 1003.7 1000.0 0.0
24/12:00pm 25.5 24.9 22.0 81 2.4 W 28 39 15 21 1003.8 1000.1 0.0
24/11:30am 25.8 26.6 23.1 85 1.9 W 24 39 13 21 1003.7 1000.0 0.0
24/11:00am 25.5 25.9 23.2 87 1.6 W 26 35 14 19 1003.8 1000.1 0.0
24/10:30am 25.0 25.4 23.2 90 1.2 W 26 35 14 19 1003.8 1000.1 0.0
24/10:00am 24.2 24.3 23.3 95 0.6 W 28 39 15 21 1003.6 999.9 0.0
24/09:30am 23.6 24.1 23.3 98 0.2 W 26 37 14 20 1003.8 1000.1 0.0
24/09:00am 23.1 22.2 22.8 98 0.2 WNW 32 41 17 22 1003.9 1000.2 44.4
24/08:30am 23.3 24.4 23.0 98 0.2 W 22 30 12 16 1003.4 999.7 44.4
24/08:00am 22.4 23.4 22.2 99 0.1 W 20 28 11 15 1003.1 999.4 44.4
24/07:30am 22.1 23.1 22.1 100 0.0 W 20 28 11 15 1002.6 998.9 44.4
24/07:00am 21.9 22.8 21.9 100 0.0 W 20 30 11 16 1002.2 998.5 44.4
24/06:30am 21.4 22.2 21.4 100 0.0 WNW 19 24 10 13 1002.0 998.3 44.4
24/06:00am 21.4 23.0 21.4 100 0.0 WNW 15 20 8 11 1001.8 998.1 44.4
24/05:30am 21.3 22.4 21.3 100 0.0 WNW 17 20 9 11 1001.2 997.5 44.4
24/05:00am 21.8 23.2 21.8 100 0.0 WNW 17 22 9 12 1000.9 997.2 44.4
24/04:30am 22.4 23.7 22.4 100 0.0 NW 19 24 10 13 1000.6 996.8 44.4
24/04:00am 22.7 24.2 22.7 100 0.0 NNW 19 24 10 13 999.9 996.2 44.4
24/03:30am 22.8 23.8 22.8 100 0.0 N 22 30 12 16 999.6 995.9 44.2
24/03:00am 22.8 23.4 22.8 100 0.0 N 24 32 13 17 999.6 995.9 43.6
24/02:30am 23.6 25.6 23.6 100 0.0 N 19 26 10 14 999.4 995.7 42.2
24/02:00am 23.2 25.7 23.2 100 0.0 NNE 15 20 8 11 999.4 995.7 42.0
24/01:30am 22.6 23.5 22.6 100 0.0 ENE 22 35 12 19 999.4 995.7 41.4
24/01:00am 22.5 22.2 22.5 100 0.0 ENE 28 37 15 20 999.7 996.0 41.0
24/12:30am 22.4 22.8 22.4 100 0.0 E 24 33 13 18 1000.2 996.5 40.6
24/12:00am 22.2 23.2 22.2 100 0.0 E 20 30 11 16 1001.0 997.3 39.2
 
Date/Time
WST
Temp
°C
App
Temp
°C
Dew
Point
°C
Rel
Hum
%
Delta-T
°C
Wind Press
QNH
hPa
Press
MSL
hPa
Rain since
9am
mm
Dir  Spd
km/h
Gust
km/h
Spd
kts
Gust
kts
23/11:30pm 21.7 22.1 21.7 100 0.0 SE 22 32 12 17 1001.6 997.9 38.8
23/11:00pm 21.8 21.9 21.8 100 0.0 ESE 24 33 13 18 1002.2 998.5 38.6
23/10:30pm 21.7 21.7 21.7 100 0.0 ESE 24 32 13 17 1003.1 999.4 38.0
23/10:00pm 21.5 21.4 21.5 100 0.0 E 24 37 13 20 1003.8 1000.1 37.4
23/09:30pm 21.5 22.4 21.5 100 0.0 ENE 19 28 10 15 1004.7 1001.0 35.6
23/09:00pm 22.1 21.1 21.9 99 0.1 ENE 30 48 16 26 1004.2 1000.5 32.6
23/08:57pm 22.4 22.0 22.4 100 0.0 E 28 48 15 26 1004.2 1000.5 32.4
23/08:30pm 21.2 20.2 21.2 100 0.0 E 28 39 15 21 1004.3 1000.6 27.4
23/08:00pm 20.8 21.3 20.8 100 0.0 E 19 28 10 15 1004.3 1000.6 18.6
23/07:30pm 21.2 21.6 20.9 98 0.2 E 20 30 11 16 1004.2 1000.5 13.0
23/07:00pm 21.9 21.5 20.9 94 0.7 ESE 24 32 13 17 1003.9 1000.2 12.0
23/06:30pm 22.2 21.8 21.0 93 0.8 ESE 24 33 13 18 1004.2 1000.5 12.0
23/06:00pm 22.3 21.9 20.9 92 0.9 ESE 24 35 13 19 1003.9 1000.2 12.0
23/05:30pm 22.7 22.1 21.9 95 0.5 ESE 28 44 15 24 1003.6 999.9 11.8
23/05:00pm 22.7 23.0 22.2 97 0.3 ESE 24 35 13 19 1003.6 999.9 11.8
23/04:30pm 22.3 22.9 22.1 99 0.1 ESE 22 32 12 17 1003.8 1000.1 11.8
23/04:00pm 22.3 23.9 22.1 99 0.1 ESE 17 24 9 13 1004.4 1000.7 10.8
23/03:30pm 23.0 26.0 22.7 98 0.2 SSE 11 15 6 8 1004.8 1001.2 8.8
23/03:00pm 23.8 25.5 21.7 88 1.4 SSE 15 20 8 11 1004.9 1001.3 8.0
23/02:30pm 23.7 26.5 23.0 96 0.5 ESE 13 17 7 9 1005.0 1001.4 7.6
23/02:00pm 23.1 26.2 22.8 98 0.2 SE 11 15 6 8 1004.9 1001.3 7.4
23/01:30pm 23.0 23.9 22.7 98 0.2 SE 22 32 12 17 1005.2 1001.5 6.2
23/01:00pm 22.8 24.6 22.5 98 0.2 SSE 17 24 9 13 1005.5 1001.8 6.2
23/12:30pm 22.4 24.3 22.1 98 0.2 S 15 24 8 13 1006.3 1002.6 5.4
23/12:00pm 22.5 24.1 22.2 98 0.2 S 17 22 9 12 1006.4 1002.7 4.6
23/11:30am 23.1 25.8 22.9 99 0.1 S 13 17 7 9 1007.0 1003.4 2.8
23/11:00am 23.4 24.9 22.0 92 0.9 S 17 24 9 13 1006.9 1003.3 1.2
23/10:30am 23.3 24.6 21.7 91 1.1 S 17 20 9 11 1007.0 1003.4 1.2
23/10:00am 23.6 26.1 22.4 93 0.8 S 13 15 7 8 1008.6 1004.9 0.8
23/09:30am 23.6 26.8 21.7 89 1.3 SW 7 13 4 7 1009.1 1005.5 0.4
23/09:00am 24.5 27.3 20.4 78 2.7 NW 6 11 3 6 1008.9 1005.3 8.4
23/08:30am 25.1 28.4 19.9 73 3.4 S 2 9 1 5 1008.9 1005.3 8.2
23/08:00am 25.4 27.7 19.8 71 3.7 SE 7 9 4 5 1008.3 1004.6 8.2
23/07:30am 24.8 27.4 20.5 77 2.9 N 7 9 4 5 1008.4 1004.7 8.2
23/07:00am 24.8 27.1 19.4 72 3.5 S 6 7 3 4 1007.5 1003.8 8.2
23/06:30am 24.4 25.3 19.2 73 3.4 S 13 17 7 9 1006.8 1003.2 8.2
23/06:00am 24.9 26.2 19.3 71 3.7 S 11 15 6 8 1006.5 1002.8 8.2
23/05:30am 24.1 26.9 20.8 82 2.2 SE 7 11 4 6 1007.3 1003.7 8.2
23/05:00am 24.1 27.0 20.6 81 2.3 W 6 9 3 5 1007.3 1003.7 8.0
23/04:30am 24.4 27.9 20.3 78 2.7 NNW 2 7 1 4 1007.1 1003.5 7.8
23/04:00am 24.4 28.7 21.1 82 2.2 CALM 0 7 0 4 1006.9 1003.3 7.8
23/03:30am 24.2 27.1 21.1 83 2.1 SSE 7 13 4 7 1007.0 1003.4 7.8
23/03:00am 24.6 27.0 20.1 76 3.0 S 7 11 4 6 1006.8 1003.2 7.8
23/02:30am 23.6 28.7 23.3 98 0.2 S 2 7 1 4 1007.3 1003.7 7.8
23/02:00am 23.4 26.6 21.7 90 1.1 SSW 7 13 4 7 1007.8 1004.1 7.8
23/01:30am 23.4 25.9 22.4 94 0.7 SSE 13 19 7 10 1008.3 1004.6 7.8
23/01:00am 23.7 25.9 21.2 86 1.7 NNW 11 15 6 8 1009.0 1005.4 7.6
23/12:30am 24.4 25.9 20.5 79 2.6 NW 13 20 7 11 1009.2 1005.6 7.4
23/12:00am 25.1 23.5 19.2 70 3.9 NW 26 33 14 18 1009.1 1005.5 7.4
 
Date/Time
WST
Temp
°C
App
Temp
°C
Dew
Point
°C
Rel
Hum
%
Delta-T
°C
Wind Press
QNH
hPa
Press
MSL
hPa
Rain since
9am
mm
Dir  Spd
km/h
Gust
km/h
Spd
kts
Gust
kts
22/11:30pm 25.1 26.0 19.2 70 3.8 NW 13 17 7 9 1008.3 1004.6 7.4
22/11:00pm 24.7 25.5 19.8 74 3.2 NNW 15 20 8 11 1008.5 1004.8 7.4
22/10:30pm 23.7 25.8 20.2 81 2.3 NE 9 13 5 7 1009.0 1005.4 7.4
22/10:07pm 24.0 21.2 17.3 66 4.2 NNE 28 46 15 25 1009.9 1006.2 7.2
22/10:00pm 26.0 22.4 16.3 55 6.1 NE 30 44 16 24 1010.0 1006.3 6.8
22/09:30pm 27.2 25.2 17.4 55 6.3 ENE 24 37 13 20 1009.7 1006.1 6.6
22/09:00pm 26.9 25.6 19.0 62 5.2 NE 24 35 13 19 1010.1 1006.4 6.6
22/08:30pm 24.9 27.8 21.0 79 2.6 WSW 7 9 4 5 1008.6 1004.9 6.6
22/08:00pm 24.5 27.7 22.4 88 1.4 W 9 15 5 8 1008.4 1004.7 6.6
22/07:30pm 24.9 30.2 23.0 89 1.3 CALM 0 0 0 0 1008.9 1005.3 6.6
22/07:00pm 24.0 28.7 22.6 92 1.0 E 2 6 1 3 1009.1 1005.5 6.6
22/06:30pm 22.5 24.7 21.1 92 0.9 ENE 11 15 6 8 1009.1 1005.5 6.6
22/06:00pm 22.7 23.9 21.5 93 0.8 ENE 17 26 9 14 1009.9 1006.2 5.0
22/05:30pm 24.7 24.7 18.9 70 3.8 E 17 28 9 15 1009.0 1005.4 2.0
22/05:00pm 24.9 24.9 20.2 75 3.1 SE 20 28 11 15 1008.6 1004.9 1.2
22/04:30pm 25.6 24.9 20.2 72 3.6 ENE 24 46 13 25 1008.4 1004.7 1.0
22/04:25pm 25.6 24.3 20.6 74 3.3 ENE 28 46 15 25 1008.4 1004.7 1.0
22/04:15pm 25.1 25.1 20.1 74 3.3 NNW 20 48 11 26 1008.4 1004.7 1.0
22/04:00pm 28.1 29.0 20.1 62 5.3 W 15 24 8 13 1006.8 1003.2 0.6
22/03:30pm 28.5 27.8 19.4 57 6.0 SE 22 44 12 24 1006.5 1002.8 0.4
22/03:21pm 27.8 27.5 20.4 64 4.9 S 22 44 12 24 1006.9 1003.3 0.4
22/03:00pm 29.3 30.4 21.3 62 5.4 SSW 17 28 9 15 1007.1 1003.5 0.0
22/02:50pm 28.7 28.1 20.4 60 5.6 SSW 24 33 13 18 1006.9 1003.3 0.0
22/02:30pm 33.8 32.2 17.5 38 10.7 W 22 39 12 21 1006.9 1003.3 0.0
22/02:00pm 37.1 35.7 17.1 30 13.2 NNW 20 30 11 16 1006.9 1003.3 0.0
22/01:30pm 38.0 34.7 13.9 24 15.2 NNW 24 35 13 19 1007.2 1003.6 0.0
22/01:00pm 37.7 35.1 14.9 26 14.6 N 22 35 12 19 1007.9 1004.2 0.0
22/12:30pm 37.5 35.1 15.3 26 14.2 N 22 37 12 20 1008.1 1004.4 0.0
22/12:00pm 38.4 36.3 13.6 23 15.6 NW 17 35 9 19 1008.6 1004.9 0.0
22/11:30am 37.7 38.2 15.5 27 14.3 NNW 7 11 4 6 1008.8 1005.1 0.0
22/11:00am 38.1 37.8 16.4 27 14.2 NNE 13 24 7 13 1009.1 1005.5 0.0
22/10:30am 36.6 36.6 16.2 29 13.2 WNW 11 20 6 11 1009.6 1006.0 0.0
22/10:00am 35.8 36.1 17.0 32 12.3 WNW 11 20 6 11 1009.7 1006.1 0.0
22/09:30am 34.5 34.2 16.4 34 11.7 W 13 22 7 12 1010.2 1006.5 0.0
22/09:00am 34.0 32.4 15.9 33 11.6 WNW 19 28 10 15 1010.5 1006.8 0.0
22/08:30am 32.8 31.1 15.8 36 10.8 NW 19 26 10 14 1010.5 1006.8 0.0
22/08:00am 31.8 29.9 15.3 37 10.4 NNW 19 28 10 15 1010.6 1006.9 0.0
22/07:30am 31.5 29.9 15.0 36 10.3 NNW 17 22 9 12 1010.8 1007.1 0.0
22/07:00am 30.7 30.0 14.3 36 10.1 NNW 11 15 6 8 1010.6 1006.9 0.0
22/06:30am 29.0 29.1 14.4 41 9.0 N 7 9 4 5 1010.0 1006.3 0.0
22/06:00am 28.1 28.1 13.6 41 8.8 N 6 7 3 4 1009.6 1006.0 0.0
22/05:30am 28.0 27.5 12.8 39 9.1 N 7 11 4 6 1009.1 1005.5 0.0
22/05:00am 28.1 26.8 12.5 38 9.3 N 11 13 6 7 1008.7 1005.0 0.0
22/04:30am 29.0 27.3 12.4 36 9.9 N 13 19 7 10 1008.3 1004.6 0.0
22/04:00am 28.5 26.4 11.1 34 10.2 N 13 15 7 8 1007.7 1004.0 0.0
22/03:30am 28.2 26.8 10.9 34 10.0 N 9 13 5 7 1007.3 1003.7 0.0
22/03:00am 28.5 26.7 10.7 33 10.3 N 11 13 6 7 1007.2 1003.6 0.0
22/02:30am 27.7 27.5 10.4 34 9.9 N 2 6 1 3 1007.2 1003.6 0.0
22/02:00am 28.3 26.6 10.0 32 10.5 NNE 9 9 5 5 1007.3 1003.7 0.0
22/01:30am 28.3 26.6 10.0 32 10.5 NNE 9 11 5 6 1007.6 1003.9 0.0
22/01:00am 28.1 26.7 9.4 31 10.6 N 7 9 4 5 1007.7 1004.0 0.0
22/12:30am 28.4 27.0 8.7 29 11.0 NNE 6 9 3 5 1007.9 1004.2 0.0
22/12:00am 29.3 27.6 8.4 27 11.7 N 7 9 4 5 1008.2 1004.5 0.0
 
Date/Time
WST
Temp
°C
App
Temp
°C
Dew
Point
°C
Rel
Hum
%
Delta-T
°C
Wind Press
QNH
hPa
Press
MSL
hPa
Rain since
9am
mm
Dir  Spd
km/h
Gust
km/h
Spd
kts
Gust
kts
21/11:30pm 29.7 27.4 7.6 25 12.2 N 9 13 5 7 1008.5 1004.8 0.0
21/11:00pm 30.7 27.4 6.6 22 13.2 N 13 13 7 7 1008.8 1005.1 0.0
21/10:30pm 30.8 27.6 5.3 20 13.7 NW 11 15 6 8 1009.1 1005.5 0.0
21/10:00pm 30.8 27.8 6.0 21 13.5 NNE 11 13 6 7 1008.9 1005.3 0.0
21/09:30pm 31.0 27.9 5.4 20 13.8 NE 11 13 6 7 1008.8 1005.1 0.0
21/09:00pm 31.5 28.5 5.8 20 14.0 NNE 11 11 6 6 1008.7 1005.0 0.0
21/08:30pm 32.2 29.5 5.7 19 14.4 NNE 9 11 5 6 1008.3 1004.6 0.0
21/08:00pm 33.3 30.5 5.0 17 15.3 NNE 9 9 5 5 1008.2 1004.5 0.0
21/07:30pm 34.3 31.4 4.9 16 16.0 NNE 9 11 5 6 1008.0 1004.3 0.0
21/07:00pm 35.7 32.7 4.1 14 17.1 NNE 9 13 5 7 1007.7 1004.0 0.0
21/06:30pm 37.2 33.2 3.1 12 18.3 NNE 13 20 7 11 1007.5 1003.8 0.0
21/06:00pm 38.3 34.3 2.7 11 19.1 NE 13 20 7 11 1007.3 1003.7 0.0

Other formats

Comma delimited format used in spreadsheet applications
http://www.bom.gov.au/fwo/IDW60801/IDW60801.94457.axf

JavaScript Object Notation format (JSON) in row-major order
http://www.bom.gov.au/fwo/IDW60801/IDW60801.94457.json

Data quality

Most of these data are generated automatically and are frequently updated. Quality checks on data are not normally performed. It is possible for incorrect values to appear. Refer to information at About Latest Weather Observations and please check the disclaimer before using these data.